Time;durP1;ratioP1;P1;durP2;ratioP2;P2;SDS_P1;SDS_P2;PMS_P1;PMS_P2;Temp;Humidity;BMP_temperature;BMP_pressure;BME280_temperature;BME280_humidity;BME280_pressure;Samples;Min_cycle;Max_cycle;Signal;HPM_P1;HPM_P2
2022/02/15 00:01:54;;;;;;;31.85;13.65;;;;;;;1.04;93.97;97568.06;5043873;28;20057;-63
2022/02/15 00:04:20;;;;;;;30.13;12.98;;;;;;;0.98;92.55;97550.97;5043795;28;20078;-63
2022/02/15 00:06:47;;;;;;;35.38;13.63;;;;;;;0.79;93.55;97541.97;5043870;28;20088;-56
2022/02/15 00:09:14;;;;;;;35.58;16.02;;;;;;;1.03;94.00;97585.53;5043832;28;20051;-57
2022/02/15 00:11:41;;;;;;;51.65;18.15;;;;;;;1.00;94.60;97580.66;5043527;28;20049;-56
2022/02/15 00:14:08;;;;;;;32.33;13.73;;;;;;;0.97;94.87;97571.16;5042852;28;20063;-62
2022/02/15 00:16:34;;;;;;;33.65;13.10;;;;;;;0.43;96.07;97507.41;5043754;28;20053;-57
2022/02/15 00:19:01;;;;;;;27.73;12.57;;;;;;;0.64;96.50;97550.41;5043464;28;20053;-64
2022/02/15 00:21:28;;;;;;;30.38;14.68;;;;;;;0.31;97.21;97535.06;5043385;28;20495;-62
2022/02/15 00:23:55;;;;;;;30.85;13.27;;;;;;;0.60;96.86;97579.34;5043181;28;20473;-63
2022/02/15 00:26:25;;;;;;;31.27;14.30;;;;;;;0.05;97.17;97482.00;5043496;28;20650;-56
2022/02/15 00:28:51;;;;;;;36.17;15.98;;;;;;;0.78;96.26;97578.53;5043203;28;20057;-63
2022/02/15 00:31:18;;;;;;;37.60;14.60;;;;;;;0.55;95.02;97538.56;5042972;28;20052;-61
2022/02/15 00:33:45;;;;;;;43.80;16.25;;;;;;;0.88;95.00;97566.69;5042981;28;20060;-56
2022/02/15 00:36:11;;;;;;;37.97;15.75;;;;;;;0.67;95.30;97566.16;5042955;28;20052;-59
2022/02/15 00:38:38;;;;;;;32.88;14.65;;;;;;;0.44;95.73;97512.53;5042253;28;20049;-56
2022/02/15 00:41:07;;;;;;;31.10;13.60;;;;;;;0.81;95.09;97564.31;5043705;28;20128;-62
2022/02/15 00:43:34;;;;;;;30.45;12.90;;;;;;;0.16;95.13;97475.31;5043405;28;20052;-59
2022/02/15 00:46:01;;;;;;;30.88;12.52;;;;;;;0.64;95.75;97555.03;5044665;28;20435;-63
2022/02/15 00:48:27;;;;;;;37.70;14.55;;;;;;;0.24;96.35;97529.16;5047188;28;20103;-57
2022/02/15 00:50:54;;;;;;;31.92;14.40;;;;;;;0.73;96.52;97562.25;5047070;28;20506;-63
2022/02/15 00:53:22;;;;;;;33.80;14.18;;;;;;;0.76;95.48;97567.13;5046852;28;20063;-59
2022/02/15 00:55:49;;;;;;;30.73;14.35;;;;;;;0.38;94.72;97519.16;5046769;28;20060;-57
2022/02/15 00:58:16;;;;;;;38.83;15.07;;;;;;;0.72;94.48;97557.91;5045593;28;20526;-63
2022/02/15 01:00:43;;;;;;;34.83;13.77;;;;;;;0.66;94.87;97548.19;5047403;28;20430;-62
2022/02/15 01:03:09;;;;;;;34.83;15.15;;;;;;;0.12;95.28;97487.91;5047230;28;20048;-59
2022/02/15 01:05:36;;;;;;;35.17;15.80;;;;;;;0.57;95.84;97563.56;5034942;28;20057;-56
2022/02/15 01:08:03;;;;;;;36.38;14.48;;;;;;;0.66;94.95;97548.19;5047128;28;20056;-61
2022/02/15 01:10:30;;;;;;;29.90;13.43;;;;;;;0.61;95.24;97540.09;5046803;28;21143;-63
2022/02/15 01:12:57;;;;;;;35.53;14.27;;;;;;;-2.19;95.23;97114.81;5046626;28;20057;-56
2022/02/15 01:15:23;;;;;;;43.97;15.68;;;;;;;0.52;96.10;97547.28;5045408;28;20053;-63
2022/02/15 01:17:50;;;;;;;35.35;15.25;;;;;;;0.40;96.48;97555.09;5046904;28;20052;-57
2022/02/15 01:20:17;;;;;;;38.75;15.85;;;;;;;0.19;96.63;97510.16;5047106;28;20494;-63
2022/02/15 01:22:43;;;;;;;37.28;16.05;;;;;;;0.36;96.68;97553.25;5047064;28;20673;-56
2022/02/15 01:25:10;;;;;;;39.50;16.25;;;;;;;0.44;96.72;97539.78;5045019;28;20052;-57
2022/02/15 01:27:37;;;;;;;32.90;14.05;;;;;;;0.36;96.34;97540.44;5045179;28;20053;-57
2022/02/15 01:30:05;;;;;;;35.22;15.23;;;;;;;0.36;96.87;97548.63;5044986;28;20057;-62
2022/02/15 01:32:32;;;;;;;37.10;16.13;;;;;;;0.37;96.32;97550.22;5046860;28;20057;-63
2022/02/15 01:34:59;;;;;;;34.38;15.20;;;;;;;-0.24;95.99;97448.66;5046612;28;20063;-62
2022/02/15 01:37:26;;;;;;;35.70;15.88;;;;;;;0.09;95.72;97504.84;5046888;28;20068;-63
2022/02/15 01:39:53;;;;;;;36.92;15.52;;;;;;;0.05;96.41;97503.78;5045549;28;20434;-58
2022/02/15 01:42:20;;;;;;;39.30;15.60;;;;;;;0.30;97.38;97533.41;5046284;28;20084;-56
2022/02/15 01:44:47;;;;;;;34.55;14.52;;;;;;;0.28;97.06;97552.00;5045130;28;20041;-62
2022/02/15 01:47:28;;;;;;;37.47;15.40;;;;;;;0.31;97.49;97540.50;5046304;28;20060;-56
2022/02/15 01:49:56;;;;;;;38.97;13.80;;;;;;;0.22;97.75;97547.72;5044914;28;20056;-56
2022/02/15 01:52:24;;;;;;;37.38;14.25;;;;;;;-0.15;98.05;97483.09;5046783;28;20067;-59
2022/02/15 01:54:53;;;;;;;37.30;13.73;;;;;;;0.29;97.24;97548.16;5046270;28;20052;-62
2022/02/15 01:57:21;;;;;;;37.75;13.45;;;;;;;0.28;97.90;97540.28;5044850;28;20528;-63
2022/02/15 01:59:50;;;;;;;35.00;13.75;;;;;;;0.21;98.42;97542.53;5046472;28;20103;-57
2022/02/15 02:02:17;;;;;;;35.90;14.57;;;;;;;0.03;99.47;97516.91;5044803;28;20053;-56
2022/02/15 02:07:31;;;;;;;31.15;14.07;;;;;;;0.18;99.82;97554.84;5046140;28;20059;-59
2022/02/15 02:09:58;;;;;;;31.40;13.00;;;;;;;0.07;98.92;97517.94;5045922;28;20434;-62
2022/02/15 02:12:25;;;;;;;30.73;13.50;;;;;;;-0.14;97.82;97473.00;5045941;28;20049;-63
2022/02/15 02:15:06;;;;;;;28.48;13.48;;;;;;;0.27;98.16;97528.56;5045502;28;20440;-58
2022/02/15 02:17:34;;;;;;;32.72;13.23;;;;;;;0.16;97.95;97537.97;5046060;28;20412;-56
2022/02/15 02:20:02;;;;;;;29.25;12.32;;;;;;;-0.71;98.84;97383.41;5046085;28;20059;-63
2022/02/15 02:22:29;;;;;;;30.48;13.57;;;;;;;0.32;98.34;97539.41;5045875;28;20056;-63
2022/02/15 02:24:57;;;;;;;33.80;13.93;;;;;;;0.24;97.04;97533.81;5045292;28;20499;-57
2022/02/15 02:27:30;;;;;;;33.78;13.95;;;;;;;0.21;98.99;97539.81;5045480;28;20055;-61
2022/02/15 02:29:57;;;;;;;32.23;14.47;;;;;;;0.23;98.38;97538.44;5045502;28;20049;-57
2022/02/15 02:32:27;;;;;;;32.30;12.75;;;;;;;0.26;96.96;97535.13;5045557;28;20061;-56
2022/02/15 02:34:57;;;;;;;31.55;13.90;;;;;;;-0.20;97.54;97468.72;5045314;28;20322;-57
2022/02/15 02:37:24;;;;;;;37.50;15.57;;;;;;;0.24;98.16;97545.50;5045552;28;20056;-63
2022/02/15 02:39:53;;;;;;;35.88;15.52;;;;;;;0.33;98.41;97535.59;5045893;28;20060;-63
2022/02/15 02:42:26;;;;;;;39.10;15.63;;;;;;;-0.13;97.86;97452.88;5045352;28;20053;-58
2022/02/15 02:44:58;;;;;;;39.08;16.85;;;;;;;0.57;96.75;97533.59;5044002;28;20059;-56
2022/02/15 02:47:25;;;;;;;36.58;17.10;;;;;;;0.62;95.61;97530.78;5045376;28;20060;-63
2022/02/15 02:49:52;;;;;;;33.70;15.05;;;;;;;0.07;95.91;97468.91;5045482;28;20057;-57
2022/02/15 02:52:20;;;;;;;34.17;13.80;;;;;;;0.51;95.92;97545.69;5045395;28;20099;-56
2022/02/15 02:54:47;;;;;;;26.30;11.75;;;;;;;-0.06;96.30;97464.19;5044982;28;20056;-58
2022/02/15 02:57:14;;;;;;;28.63;12.05;;;;;;;-0.18;96.42;97434.69;5045542;28;20480;-63
2022/02/15 02:59:42;;;;;;;32.88;13.02;;;;;;;0.44;96.09;97523.44;5045405;28;20139;-56
2022/02/15 03:02:10;;;;;;;24.23;11.82;;;;;;;0.47;94.70;97527.47;5043859;28;20063;-59
2022/02/15 03:04:36;;;;;;;29.77;13.55;;;;;;;0.40;95.04;97527.03;5045160;28;20053;-57
2022/02/15 03:07:03;;;;;;;26.17;11.73;;;;;;;0.31;96.12;97535.06;5043662;28;20053;-58
2022/02/15 03:09:31;;;;;;;26.77;12.52;;;;;;;0.39;95.96;97548.03;5044120;28;20424;-63
2022/02/15 03:11:58;;;;;;;31.48;11.75;;;;;;;0.17;95.59;97512.38;5044901;28;20063;-57
2022/02/15 03:14:24;;;;;;;28.15;12.25;;;;;;;0.32;95.81;97542.13;5044577;28;20087;-56
2022/02/15 03:16:51;;;;;;;30.33;12.77;;;;;;;0.40;95.56;97549.63;5045134;28;20057;-57
2022/02/15 03:19:18;;;;;;;36.78;13.65;;;;;;;0.31;94.98;97540.50;5044911;28;20060;-64
2022/02/15 03:21:45;;;;;;;33.85;12.27;;;;;;;-0.34;94.21;97427.00;5044757;28;20064;-64
2022/02/15 03:24:11;;;;;;;29.98;13.27;;;;;;;0.27;95.26;97544.91;5044309;28;20049;-64
2022/02/15 03:26:38;;;;;;;32.58;13.45;;;;;;;0.13;95.65;97532.31;5044570;28;20055;-58
2022/02/15 03:29:05;;;;;;;38.80;15.25;;;;;;;0.18;95.37;97529.50;5043982;28;20045;-64
2022/02/15 03:31:32;;;;;;;28.63;13.88;;;;;;;0.29;95.10;97537.25;5044553;28;20132;-57
2022/02/15 03:33:58;;;;;;;30.08;14.20;;;;;;;0.25;96.22;97552.59;5043625;28;20063;-60
2022/02/15 03:36:25;;;;;;;32.97;14.38;;;;;;;0.21;96.21;97551.53;5044375;28;20049;-64
2022/02/15 03:38:52;;;;;;;41.05;16.75;;;;;;;0.11;95.89;97561.75;5044307;28;20049;-64
2022/02/15 03:44:04;;;;;;;51.80;18.70;;;;;;;0.02;95.23;97542.50;5043873;28;20061;-59
2022/02/15 03:46:31;;;;;;;41.17;14.90;;;;;;;-0.82;95.25;97387.34;5043939;28;20053;-65
2022/02/15 03:48:57;;;;;;;32.40;14.60;;;;;;;0.09;95.29;97542.97;5043733;28;20060;-65
2022/02/15 03:51:24;;;;;;;33.95;14.90;;;;;;;0.12;95.24;97536.13;5044096;28;20064;-56
2022/02/15 03:53:51;;;;;;;33.30;13.93;;;;;;;0.12;95.67;97534.22;5044065;28;20077;-66
2022/02/15 03:56:19;;;;;;;70.38;24.25;;;;;;;0.12;94.55;97536.94;5042354;28;20068;-66
2022/02/15 03:58:46;;;;;;;43.05;15.95;;;;;;;-0.25;94.52;97471.50;5043688;28;20059;-65
2022/02/15 04:01:13;;;;;;;34.50;14.35;;;;;;;0.14;95.08;97551.09;5044348;28;20147;-66
2022/02/15 04:03:40;;;;;;;37.90;14.95;;;;;;;0.10;94.79;97560.91;5042532;28;20065;-66
2022/02/15 04:06:07;;;;;;;40.88;17.77;;;;;;;-0.03;95.68;97572.50;5042060;28;20055;-59
2022/02/15 04:08:33;;;;;;;48.90;17.55;;;;;;;0.01;95.09;97573.56;5043673;28;20060;-57
2022/02/15 04:11:00;;;;;;;42.05;17.35;;;;;;;-0.04;95.77;97568.19;5043318;28;20060;-59
2022/02/15 04:13:27;;;;;;;42.03;17.40;;;;;;;-0.09;97.10;97562.78;5043455;28;20057;-65
2022/02/15 04:15:53;;;;;;;55.58;22.35;;;;;;;-0.04;96.51;97560.00;5043345;28;20294;-66
2022/02/15 04:18:20;;;;;;;51.10;21.05;;;;;;;-0.08;96.46;97558.97;5042309;28;20541;-56
2022/02/15 04:20:47;;;;;;;49.78;20.58;;;;;;;-0.09;96.94;97579.94;5042191;28;20064;-66
2022/02/15 04:23:13;;;;;;;44.50;19.60;;;;;;;-0.04;96.88;97570.91;5043326;28;20053;-65
2022/02/15 04:25:40;;;;;;;68.07;25.33;;;;;;;-1.01;96.57;97402.78;5043556;28;20057;-57
2022/02/15 04:28:07;;;;;;;75.28;32.03;;;;;;;-0.25;96.01;97515.06;5042015;28;20063;-66
2022/02/15 04:30:35;;;;;;;80.30;33.78;;;;;;;0.13;94.34;97548.66;5043506;28;20057;-66
2022/02/15 04:33:03;;;;;;;68.63;29.42;;;;;;;0.25;93.31;97579.81;5043519;28;20049;-66
2022/02/15 04:35:30;;;;;;;63.33;25.38;;;;;;;0.16;93.09;97583.47;5043368;28;20087;-56
2022/02/15 04:37:57;;;;;;;46.85;21.88;;;;;;;0.19;93.99;97586.41;5043657;28;20045;-66
2022/02/15 04:40:24;;;;;;;43.65;18.35;;;;;;;-0.72;93.44;97449.75;5043255;28;20474;-66
2022/02/15 04:42:50;;;;;;;39.25;17.70;;;;;;;0.07;94.00;97583.28;5041387;28;20136;-66
2022/02/15 04:45:17;;;;;;;55.03;20.30;;;;;;;0.14;92.61;97588.38;5041597;28;20084;-57
2022/02/15 04:47:44;;;;;;;55.08;20.38;;;;;;;-0.07;93.07;97574.19;5043565;28;20053;-66
2022/02/15 04:50:11;;;;;;;57.67;21.30;;;;;;;-0.57;92.89;97498.56;5041556;28;20056;-66
2022/02/15 04:52:37;;;;;;;52.25;20.42;;;;;;;-0.01;93.10;97592.09;5044025;28;20439;-65
2022/02/15 04:55:04;;;;;;;60.13;22.52;;;;;;;-0.61;93.67;97484.72;5043051;28;20517;-57
2022/02/15 04:57:31;;;;;;;70.93;26.23;;;;;;;-0.26;93.04;97537.94;5041513;28;20056;-66
2022/02/15 04:59:58;;;;;;;54.40;20.92;;;;;;;-0.25;93.55;97574.94;5043112;28;20077;-59
2022/02/15 05:02:25;;;;;;;63.80;24.90;;;;;;;-0.11;93.61;97614.78;5043157;28;20491;-66
2022/02/15 05:04:53;;;;;;;75.68;28.65;;;;;;;-0.15;93.97;97599.31;5043156;28;20049;-58
2022/02/15 05:07:21;;;;;;;70.60;26.55;;;;;;;-0.12;93.31;97596.03;5043212;28;20049;-66
2022/02/15 05:09:48;;;;;;;56.90;23.25;;;;;;;-0.43;94.58;97556.63;5042994;28;20045;-57
2022/02/15 05:12:16;;;;;;;48.47;21.58;;;;;;;-0.19;94.51;97585.47;5043679;28;20061;-56
2022/02/15 05:14:43;;;;;;;55.75;21.15;;;;;;;-0.16;94.54;97608.59;5041613;28;20053;-56
2022/02/15 05:17:10;;;;;;;57.17;21.83;;;;;;;-0.16;94.95;97589.56;5043422;28;20436;-58
2022/02/15 05:19:39;;;;;;;52.40;20.52;;;;;;;-0.12;94.89;97610.47;5042914;28;20164;-56
2022/02/15 05:22:06;;;;;;;58.20;22.23;;;;;;;-0.13;94.68;97613.47;5041734;28;20057;-57
2022/02/15 05:24:33;;;;;;;86.28;32.10;;;;;;;-0.65;96.31;97532.63;5043074;28;20148;-57
2022/02/15 05:26:59;;;;;;;93.90;32.45;;;;;;;-0.77;95.28;97528.66;5041880;28;20157;-60
2022/02/15 05:29:27;;;;;;;78.65;30.52;;;;;;;-0.18;94.75;97608.06;5043404;28;20132;-66
2022/02/15 05:31:53;;;;;;;72.63;32.00;;;;;;;-0.16;95.83;97620.28;5044410;28;20045;-66
2022/02/15 05:34:20;;;;;;;75.35;31.92;;;;;;;-0.53;95.29;97545.84;5046267;28;20111;-57
2022/02/15 05:36:47;;;;;;;89.18;32.75;;;;;;;-0.66;95.03;97530.19;5045093;28;20072;-67
2022/02/15 05:39:14;;;;;;;100.03;31.17;;;;;;;-0.01;93.46;97630.22;5046793;28;20500;-57
2022/02/15 05:41:40;;;;;;;81.50;30.55;;;;;;;-0.05;93.76;97615.56;5044958;28;20148;-66
2022/02/15 05:44:07;;;;;;;81.10;28.98;;;;;;;-0.05;92.62;97615.56;5009407;28;20049;-66
2022/02/15 05:46:34;;;;;;;62.75;24.38;;;;;;;-0.08;92.95;97613.44;2176683;28;10002076;-66
2022/02/15 05:49:02;;;;;;;59.58;24.17;;;;;;;-0.33;93.94;97581.81;5020665;28;20061;-56
2022/02/15 05:51:29;;;;;;;61.55;24.05;;;;;;;0.08;95.31;97633.91;5046247;28;20045;-66
2022/02/15 05:53:56;;;;;;;67.47;28.02;;;;;;;0.19;94.73;97640.09;5046086;28;20175;-56
2022/02/15 05:56:22;;;;;;;74.25;27.55;;;;;;;0.24;94.12;97627.22;5046093;28;20053;-56
2022/02/15 05:58:49;;;;;;;56.58;26.48;;;;;;;0.39;94.78;97629.78;5045647;28;20530;-58
2022/02/15 06:01:17;;;;;;;54.30;23.85;;;;;;;0.51;94.48;97632.88;5045729;28;20507;-66
2022/02/15 06:06:29;;;;;;;64.15;27.63;;;;;;;0.73;92.08;97635.03;5045827;28;20067;-66
2022/02/15 06:08:58;;;;;;;55.63;24.67;;;;;;;0.89;92.18;97634.56;5045910;28;20057;-67
2022/02/15 06:11:25;;;;;;;42.72;20.40;;;;;;;1.07;91.56;97632.94;5045970;28;20075;-65
2022/02/15 06:13:55;;;;;;;40.38;18.98;;;;;;;1.14;91.15;97620.53;5045771;28;20044;-57
2022/02/15 06:16:23;;;;;;;45.58;18.25;;;;;;;1.30;90.42;97627.41;5045992;28;20051;-66
2022/02/15 06:18:50;;;;;;;42.53;18.77;;;;;;;1.17;89.50;97619.94;5045851;28;20053;-66
2022/02/15 06:21:17;;;;;;;41.60;18.23;;;;;;;1.33;88.88;97640.44;5045891;28;20057;-57
2022/02/15 06:23:45;;;;;;;46.58;18.10;;;;;;;1.09;88.59;97562.53;5043728;28;20068;-66
2022/02/15 06:26:12;;;;;;;51.08;21.27;;;;;;;1.70;88.27;97646.94;5044441;28;20075;-57
2022/02/15 06:28:39;;;;;;;56.35;23.48;;;;;;;1.84;86.50;97640.41;5045597;28;20053;-65
2022/02/15 06:31:07;;;;;;;45.33;20.05;;;;;;;1.80;86.40;97616.75;5045055;28;20491;-58
2022/02/15 06:33:36;;;;;;;51.58;20.67;;;;;;;1.27;86.43;97518.84;5045740;28;20052;-67
2022/02/15 06:36:04;;;;;;;60.00;27.13;;;;;;;1.97;87.42;97622.44;5045692;28;20060;-66
2022/02/15 06:38:31;;;;;;;75.55;32.90;;;;;;;2.27;87.63;97632.78;5045795;28;20066;-67
2022/02/15 06:40:58;;;;;;;49.42;22.83;;;;;;;2.52;86.62;97635.84;5043983;28;20045;-64
2022/02/15 06:43:24;;;;;;;61.55;22.90;;;;;;;2.69;83.93;97637.94;5044571;28;20494;-66
2022/02/15 06:45:51;;;;;;;66.35;23.25;;;;;;;2.82;83.10;97634.41;5045108;28;20057;-57
2022/02/15 06:48:18;;;;;;;69.57;24.00;;;;;;;2.90;83.16;97625.47;5045717;28;20072;-58
2022/02/15 06:50:44;;;;;;;63.08;24.42;;;;;;;2.89;82.10;97585.56;5045221;28;20045;-66
2022/02/15 06:53:11;;;;;;;89.50;38.67;;;;;;;3.02;81.94;97623.00;5044702;28;20045;-59
2022/02/15 06:55:58;;;;;;;51.28;22.88;;;;;;;2.88;81.56;97551.91;5038179;28;20053;-57
2022/02/15 06:58:27;;;;;;;46.53;24.27;;;;;;;3.24;81.27;97571.03;5043151;28;20053;-56
2022/02/15 07:00:54;;;;;;;40.38;18.67;;;;;;;2.97;79.42;97539.09;5046292;28;20507;-63
2022/02/15 07:03:21;;;;;;;38.53;16.67;;;;;;;2.07;79.08;97371.69;5043500;28;20464;-66
2022/02/15 07:05:47;;;;;;;36.25;18.05;;;;;;;3.29;79.33;97543.53;5043755;28;20322;-59
2022/02/15 07:08:14;;;;;;;47.17;21.63;;;;;;;3.90;79.15;97631.28;5043634;28;20143;-57
2022/02/15 07:10:41;;;;;;;38.70;17.38;;;;;;;3.33;78.93;97516.34;5043897;28;20063;-59
2022/02/15 07:13:07;;;;;;;40.83;18.80;;;;;;;4.09;79.20;97609.97;5048302;28;20558;-67
2022/02/15 07:15:34;;;;;;;47.22;21.83;;;;;;;4.23;78.83;97610.69;5042734;28;20049;-59
2022/02/15 07:18:01;;;;;;;39.72;19.77;;;;;;;4.30;77.81;97602.78;5042020;28;20051;-57
2022/02/15 07:20:32;;;;;;;36.03;17.90;;;;;;;4.56;77.69;97609.19;5043449;28;20409;-64
2022/02/15 07:22:58;;;;;;;43.13;21.00;;;;;;;4.76;77.34;97601.50;5043360;28;20068;-67
2022/02/15 07:25:26;;;;;;;43.58;21.27;;;;;;;4.79;75.81;97587.13;5042521;28;20665;-60
2022/02/15 07:27:52;;;;;;;53.17;26.90;;;;;;;5.01;76.03;97595.25;5046073;28;20055;-69
2022/02/15 07:30:20;;;;;;;52.25;25.95;;;;;;;4.89;75.27;97543.72;5038259;28;20045;-62
2022/02/15 07:32:47;;;;;;;49.83;24.17;;;;;;;5.18;75.00;97589.78;5041390;28;20174;-58
2022/02/15 07:35:16;;;;;;;51.58;25.15;;;;;;;4.72;74.71;97496.25;5042840;28;20611;-56
2022/02/15 07:37:46;;;;;;;49.17;26.25;;;;;;;5.46;73.48;97582.81;5043706;28;20049;-57
2022/02/15 07:40:13;;;;;;;52.55;24.65;;;;;;;5.70;74.12;97594.94;5041200;28;20118;-57
2022/02/15 07:42:40;;;;;;;45.45;22.38;;;;;;;5.49;73.15;97540.94;5042284;28;20053;-67
2022/02/15 07:45:07;;;;;;;37.65;18.92;;;;;;;5.61;73.35;97574.09;5021630;28;20117;-59
2022/02/15 07:47:34;;;;;;;41.17;18.17;;;;;;;5.59;73.78;97555.19;5037845;28;20055;-65
2022/02/15 07:50:00;;;;;;;34.90;18.33;;;;;;;5.95;73.42;97599.59;5043636;28;20664;-57
2022/02/15 07:52:27;;;;;;;36.05;18.38;;;;;;;6.16;73.55;97596.97;5038073;28;20074;-58
2022/02/15 07:54:54;;;;;;;33.05;16.58;;;;;;;6.17;72.86;97587.56;5042465;28;20529;-61
2022/02/15 07:57:21;;;;;;;39.50;18.23;;;;;;;3.60;72.24;97155.50;5040253;28;20065;-68
2022/02/15 07:59:48;;;;;;;34.72;16.48;;;;;;;6.56;71.43;97595.50;5042368;28;20052;-69
2022/02/15 08:02:16;;;;;;;37.30;16.05;;;;;;;6.19;72.21;97552.28;5041769;28;20064;-64
2022/02/15 08:04:43;;;;;;;32.63;16.48;;;;;;;5.65;74.93;97520.91;5042561;28;20041;-63
2022/02/15 08:07:09;;;;;;;28.35;14.43;;;;;;;5.93;73.01;97493.81;5042851;28;20053;-59
2022/02/15 08:09:36;;;;;;;29.73;14.85;;;;;;;6.64;72.52;97602.13;5042765;28;20437;-59
2022/02/15 08:12:08;;;;;;;25.58;14.27;;;;;;;6.45;72.31;97598.97;5043013;28;20076;-57
2022/02/15 08:14:35;;;;;;;27.75;14.60;;;;;;;6.75;71.59;97575.81;5035764;28;20144;-70
2022/02/15 08:17:02;;;;;;;29.98;13.77;;;;;;;6.90;70.34;97576.06;5044189;28;20049;-62
2022/02/15 08:19:30;;;;;;;25.25;13.73;;;;;;;7.20;69.06;97569.38;5040893;28;20070;-61
2022/02/15 08:21:58;;;;;;;31.13;13.85;;;;;;;7.00;68.50;97526.06;5043117;28;20071;-58
2022/02/15 08:24:29;;;;;;;23.08;13.75;;;;;;;7.29;69.45;97592.13;5041422;28;20142;-58
2022/02/15 08:26:57;;;;;;;26.35;12.13;;;;;;;7.58;68.88;97594.00;5045321;28;20057;-58
2022/02/15 08:29:24;;;;;;;25.75;12.82;;;;;;;7.52;67.28;97563.06;5036310;28;20053;-62
2022/02/15 08:31:51;;;;;;;20.85;12.48;;;;;;;7.52;66.92;97518.97;5042365;28;20506;-68
2022/02/15 08:34:17;;;;;;;23.48;12.23;;;;;;;7.72;66.18;97493.31;5043913;28;20601;-64
2022/02/15 08:36:44;;;;;;;23.58;11.82;;;;;;;8.30;64.39;97538.28;5042425;28;20053;-57
2022/02/15 08:39:11;;;;;;;23.92;11.93;;;;;;;8.72;63.46;97561.78;5041537;28;20045;-67
2022/02/15 08:41:39;;;;;;;23.85;12.80;;;;;;;8.80;63.25;97571.91;5041879;28;20499;-57
2022/02/15 08:44:06;;;;;;;21.98;12.32;;;;;;;8.69;61.84;97562.47;5043437;28;20065;-68
2022/02/15 08:46:33;;;;;;;21.63;11.48;;;;;;;8.07;61.78;97423.94;5043218;28;20056;-68
2022/02/15 08:49:00;;;;;;;22.13;12.75;;;;;;;8.98;61.96;97559.44;5044937;28;20067;-67
2022/02/15 08:51:27;;;;;;;22.52;12.30;;;;;;;8.97;61.64;97535.72;5063158;28;20059;-58
2022/02/15 08:53:53;;;;;;;23.13;12.70;;;;;;;8.90;59.99;97529.97;5061720;28;20063;-67
2022/02/15 08:56:21;;;;;;;25.52;12.32;;;;;;;9.40;60.06;97548.88;5062664;28;20057;-69
2022/02/15 08:58:49;;;;;;;21.42;12.23;;;;;;;9.29;59.90;97493.28;5063118;28;20055;-68
2022/02/15 09:01:16;;;;;;;24.98;13.75;;;;;;;9.75;58.88;97550.72;5062868;28;20446;-58
2022/02/15 09:03:45;;;;;;;23.58;12.30;;;;;;;9.87;58.77;97558.94;5063409;28;20135;-68
2022/02/15 09:06:12;;;;;;;25.23;13.80;;;;;;;9.90;58.44;97551.91;5062712;28;20052;-68
2022/02/15 09:08:39;;;;;;;30.55;13.35;;;;;;;9.96;58.68;97550.47;5058163;28;20048;-68
2022/02/15 09:11:06;;;;;;;27.33;13.75;;;;;;;9.58;58.60;97473.56;5045723;28;20076;-57
2022/02/15 09:13:33;;;;;;;24.75;13.10;;;;;;;10.06;57.99;97534.19;5061568;28;20137;-66
2022/02/15 09:16:00;;;;;;;22.63;12.82;;;;;;;9.82;58.16;97539.84;5046292;28;20045;-58
2022/02/15 09:18:27;;;;;;;26.77;13.50;;;;;;;9.80;57.68;97542.13;5046037;28;20384;-60
2022/02/15 09:20:53;;;;;;;25.13;12.57;;;;;;;9.85;57.82;97547.44;5046143;28;20057;-59
2022/02/15 09:23:22;;;;;;;22.20;11.75;;;;;;;9.36;57.79;97493.47;5045266;28;20061;-65
2022/02/15 09:25:49;;;;;;;24.58;12.32;;;;;;;9.46;58.14;97514.28;5045923;28;20114;-68
2022/02/15 09:28:16;;;;;;;29.77;11.82;;;;;;;9.62;58.08;97518.72;5045538;28;20096;-59
2022/02/15 09:30:42;;;;;;;24.35;11.93;;;;;;;9.89;57.70;97545.56;5046109;28;20067;-58
2022/02/15 09:33:09;;;;;;;19.15;11.35;;;;;;;9.81;57.63;97516.09;5046229;28;20499;-67
2022/02/15 09:35:56;;;;;;;16.92;10.20;;;;;;;9.64;56.99;97485.97;5046019;28;20461;-69
2022/02/15 09:38:23;;;;;;;18.17;9.88;;;;;;;9.87;57.42;97534.06;5048592;28;20408;-69
2022/02/15 09:40:50;;;;;;;22.17;11.10;;;;;;;9.82;57.49;97527.97;5026185;28;20062;-59
2022/02/15 09:43:17;;;;;;;25.30;12.13;;;;;;;9.94;57.47;97520.38;5046271;28;20531;-71
2022/02/15 09:45:48;;;;;;;20.20;11.48;;;;;;;10.13;56.79;97528.84;5045999;28;20139;-62
2022/02/15 09:48:18;;;;;;;18.02;9.40;;;;;;;9.77;55.93;97459.84;5053838;28;20137;-59
2022/02/15 09:50:45;;;;;;;20.25;9.43;;;;;;;8.83;57.82;97419.28;5045399;28;20156;-57
2022/02/15 09:53:13;;;;;;;22.10;9.77;;;;;;;9.49;58.07;97475.69;5051425;28;20442;-59
2022/02/15 09:55:40;;;;;;;24.77;11.50;;;;;;;9.63;57.07;97476.06;5061798;28;20515;-58
2022/02/15 09:58:06;;;;;;;21.58;10.95;;;;;;;9.57;57.60;97438.78;5038361;28;20054;-63
2022/02/15 10:00:34;;;;;;;21.55;10.23;;;;;;;10.32;56.96;97495.72;5035009;28;20053;-64
2022/02/15 10:03:03;;;;;;;19.83;10.40;;;;;;;10.35;55.88;97467.31;5044252;28;20045;-59
2022/02/15 10:05:35;;;;;;;22.45;12.30;;;;;;;10.99;55.24;97493.75;5056670;28;20045;-58
2022/02/15 10:08:04;;;;;;;51.08;25.25;;;;;;;11.16;54.76;97487.81;5045667;28;20083;-63
2022/02/15 10:10:32;;;;;;;27.80;13.82;;;;;;;11.41;53.54;97478.03;5045002;28;20409;-64
2022/02/15 10:13:00;;;;;;;26.52;12.75;;;;;;;11.60;53.39;97480.81;5045220;28;20057;-57
2022/02/15 10:15:36;;;;;;;18.55;10.50;;;;;;;11.46;52.56;97419.50;5052912;28;20048;-57
2022/02/15 10:18:04;;;;;;;19.58;10.82;;;;;;;11.79;52.13;97480.81;5043865;28;20084;-61
2022/02/15 10:20:32;;;;;;;21.73;11.32;;;;;;;11.72;53.12;97461.25;5042519;28;20629;-56
2022/02/15 10:23:25;;;;;;;19.70;10.13;;;;;;;12.09;52.18;97459.56;5044310;28;20044;-61
2022/02/15 10:25:53;;;;;;;21.63;11.15;;;;;;;11.95;51.88;97412.91;5041963;28;20498;-56
2022/02/15 10:28:22;;;;;;;19.20;10.00;;;;;;;12.20;51.30;97450.22;5042165;28;20127;-60
2022/02/15 10:30:52;;;;;;;18.95;9.98;;;;;;;12.10;50.93;97447.28;5043542;28;20055;-55
2022/02/15 10:33:26;;;;;;;19.67;10.32;;;;;;;12.09;51.56;97442.91;5044209;28;20049;-58
2022/02/15 10:36:03;;;;;;;19.20;9.98;;;;;;;11.73;52.03;97435.09;5042440;28;20049;-60
2022/02/15 10:38:43;;;;;;;17.52;8.80;;;;;;;12.13;50.81;97432.66;5043728;28;20056;-57
2022/02/15 10:41:16;;;;;;;17.63;10.35;;;;;;;11.75;51.60;97435.53;5043358;28;20041;-57
2022/02/15 10:43:54;;;;;;;17.45;9.65;;;;;;;11.94;51.78;97435.50;5044105;28;20049;-67
2022/02/15 10:46:23;;;;;;;16.90;11.18;;;;;;;11.98;51.50;97409.38;5037609;28;20140;-65
2022/02/15 10:48:55;;;;;;;17.85;10.52;;;;;;;12.22;50.45;97432.41;5041948;28;20052;-64
2022/02/15 10:51:24;;;;;;;17.05;9.15;;;;;;;12.30;50.51;97393.25;5044097;28;20122;-57
2022/02/15 10:53:56;;;;;;;18.10;10.55;;;;;;;12.73;50.04;97445.53;5044021;28;20049;-60
2022/02/15 10:56:33;;;;;;;16.48;9.32;;;;;;;12.85;49.31;97416.72;5044319;28;20127;-56
2022/02/15 10:59:03;;;;;;;22.08;12.02;;;;;;;12.64;48.75;97358.84;5042636;28;20048;-56
2022/02/15 11:01:32;;;;;;;17.60;10.23;;;;;;;13.02;48.40;97408.66;5058439;28;20099;-56
2022/02/15 11:03:59;;;;;;;18.38;10.52;;;;;;;11.86;50.77;97367.13;5043491;28;20154;-58
2022/02/15 11:06:27;;;;;;;17.92;9.93;;;;;;;12.53;50.24;97402.38;5043821;28;20108;-64
2022/02/15 11:08:55;;;;;;;17.25;9.13;;;;;;;11.79;50.93;97358.72;5050960;28;20056;-67
2022/02/15 11:11:26;;;;;;;15.35;9.05;;;;;;;11.79;50.98;97317.84;5042185;28;20139;-58
2022/02/15 11:13:57;;;;;;;16.50;9.63;;;;;;;12.30;50.22;97354.38;5044038;28;20060;-64
2022/02/15 11:16:25;;;;;;;18.67;8.48;;;;;;;12.18;50.87;97399.03;5044339;28;20052;-62
2022/02/15 11:18:52;;;;;;;19.50;9.25;;;;;;;12.30;50.23;97393.25;5043633;28;20053;-64
2022/02/15 11:21:21;;;;;;;16.85;9.30;;;;;;;12.44;50.07;97390.69;5044125;28;20136;-63
2022/02/15 11:23:58;;;;;;;16.35;9.85;;;;;;;11.77;51.24;97353.53;5042372;28;20061;-60
2022/02/15 11:26:39;;;;;;;15.50;8.82;;;;;;;12.23;49.80;97370.94;5043645;28;20080;-66
2022/02/15 11:29:06;;;;;;;17.35;9.73;;;;;;;12.57;49.67;97378.19;5045763;28;20049;-58
2022/02/15 11:31:34;;;;;;;74.20;52.30;;;;;;;12.84;49.58;97379.78;5044031;28;20091;-65
2022/02/15 11:34:10;;;;;;;25.77;14.23;;;;;;;13.03;49.91;97354.63;5046805;28;20071;-68
2022/02/15 11:36:47;;;;;;;15.32;9.45;;;;;;;13.12;47.81;97369.03;5050914;28;20260;-67